createdAt,value
2018-02-11T00:00:06.966Z,1001.58
2018-02-11T00:00:47.539Z,1001.59
2018-02-11T00:01:28.077Z,1001.58
2018-02-11T00:02:08.647Z,1001.57
2018-02-11T00:02:49.185Z,1001.61
2018-02-11T00:03:30.658Z,1001.58
2018-02-11T00:04:11.231Z,1001.57
2018-02-11T00:04:51.753Z,1001.58
2018-02-11T00:05:32.336Z,1001.58
2018-02-11T00:06:12.901Z,1001.59
2018-02-11T00:06:53.476Z,1001.53
2018-02-11T00:07:33.984Z,1001.53
2018-02-11T00:08:14.494Z,1001.53
2018-02-11T00:08:55.036Z,1001.56
2018-02-11T00:09:35.613Z,1001.56
2018-02-11T00:10:16.128Z,1001.52
2018-02-11T00:10:56.696Z,1001.49
2018-02-11T00:11:37.202Z,1001.53
2018-02-11T00:12:17.820Z,1001.54
2018-02-11T00:12:58.313Z,1001.57
2018-02-11T00:13:38.857Z,1001.54
2018-02-11T00:14:19.367Z,1001.5
2018-02-11T00:14:59.933Z,1001.48
2018-02-11T00:15:40.450Z,1001.53
2018-02-11T00:16:21.002Z,1001.5
2018-02-11T00:17:01.534Z,1001.44
2018-02-11T00:17:42.109Z,1001.4
2018-02-11T00:18:22.647Z,1001.44
2018-02-11T00:19:03.194Z,1001.37
2018-02-11T00:19:43.766Z,1001.36
2018-02-11T00:20:24.283Z,1001.35
2018-02-11T00:21:04.828Z,1001.32
2018-02-11T00:21:45.553Z,1001.35
2018-02-11T00:22:25.989Z,1001.38
2018-02-11T00:23:06.489Z,1001.34
2018-02-11T00:23:47.067Z,1001.3
2018-02-11T00:24:27.529Z,1001.34
2018-02-11T00:25:08.194Z,1001.35
2018-02-11T00:25:48.734Z,1001.33
2018-02-11T00:26:29.140Z,1001.26
2018-02-11T00:27:09.717Z,1001.3
2018-02-11T00:27:50.244Z,1001.19
2018-02-11T00:28:30.778Z,1001.21
2018-02-11T00:29:11.300Z,1001.16
2018-02-11T00:29:51.797Z,1001.12
2018-02-11T00:30:32.397Z,1001.11
2018-02-11T00:31:12.959Z,1001.1
2018-02-11T00:31:53.625Z,1001.08
2018-02-11T00:32:34.142Z,1001.11
2018-02-11T00:33:14.707Z,1001.11
2018-02-11T00:33:55.205Z,1001.09
2018-02-11T00:34:35.838Z,1001.1
2018-02-11T00:35:16.330Z,1001.07
2018-02-11T00:35:57.147Z,1001.04
2018-02-11T00:36:37.616Z,1001.07
2018-02-11T00:37:18.214Z,1001.04
2018-02-11T00:37:58.756Z,1001.13
2018-02-11T00:38:39.209Z,1001.06
2018-02-11T00:39:19.827Z,1001.04
2018-02-11T00:40:00.393Z,1001.03
2018-02-11T00:40:40.965Z,1001.03
2018-02-11T00:41:21.430Z,1000.99
2018-02-11T00:42:01.980Z,1000.99
2018-02-11T00:42:42.560Z,1000.99
2018-02-11T00:43:23.101Z,1000.95
2018-02-11T00:44:03.639Z,1000.93
2018-02-11T00:44:44.200Z,1000.96
2018-02-11T00:45:24.666Z,1000.89
2018-02-11T00:46:05.228Z,1000.9
2018-02-11T00:46:45.759Z,1000.9
2018-02-11T00:47:26.392Z,1000.92
2018-02-11T00:48:06.912Z,1000.98
2018-02-11T00:48:47.460Z,1000.94
2018-02-11T00:49:27.974Z,1000.95
2018-02-11T00:50:08.539Z,1000.96
2018-02-11T00:50:49.167Z,1000.94
2018-02-11T00:51:29.725Z,1000.99
2018-02-11T00:52:10.276Z,1000.96
2018-02-11T00:52:50.957Z,1000.94
2018-02-11T00:53:31.543Z,1000.98
2018-02-11T00:54:12.044Z,1000.96
2018-02-11T00:54:52.515Z,1001
2018-02-11T00:55:33.110Z,1000.94
2018-02-11T00:56:13.719Z,1000.98
2018-02-11T00:56:54.226Z,1000.99
2018-02-11T00:57:34.762Z,1000.98
2018-02-11T00:58:15.415Z,1001
2018-02-11T00:58:55.956Z,1000.97
2018-02-11T00:59:36.520Z,1000.93
2018-02-11T01:00:17.117Z,1000.93
2018-02-11T01:00:57.613Z,1000.87
2018-02-11T01:01:38.173Z,1000.87
2018-02-11T01:02:18.693Z,1000.87
2018-02-11T01:02:59.234Z,1000.83
2018-02-11T01:03:39.765Z,1000.81
2018-02-11T01:04:20.419Z,1000.79
2018-02-11T01:05:00.931Z,1000.79
2018-02-11T01:05:41.475Z,1000.78
2018-02-11T01:06:21.980Z,1000.79
2018-02-11T01:07:02.504Z,1000.75
2018-02-11T01:07:43.109Z,1000.74
2018-02-11T01:08:23.609Z,1000.75
2018-02-11T01:09:04.376Z,1000.77
2018-02-11T01:09:44.790Z,1000.7
2018-02-11T01:10:25.275Z,1000.71
2018-02-11T01:11:05.908Z,1000.69
2018-02-11T01:11:46.471Z,1000.69
2018-02-11T01:12:26.951Z,1000.67
2018-02-11T01:13:07.487Z,1000.63
2018-02-11T01:13:48.042Z,1000.64
2018-02-11T01:14:28.609Z,1000.64
2018-02-11T01:15:09.108Z,1000.62
2018-02-11T01:15:49.651Z,1000.57
2018-02-11T01:16:30.220Z,1000.63
2018-02-11T01:17:10.821Z,1000.58
2018-02-11T01:17:51.465Z,1000.6
2018-02-11T01:18:31.935Z,1000.61
2018-02-11T01:19:12.561Z,1000.54
2018-02-11T01:19:53.099Z,1000.58
2018-02-11T01:20:33.810Z,1000.59
2018-02-11T01:21:14.398Z,1000.59
2018-02-11T01:21:54.929Z,1000.56
2018-02-11T01:22:35.520Z,1000.49
2018-02-11T01:23:16.010Z,1000.48
2018-02-11T01:23:56.554Z,1000.49
2018-02-11T01:24:37.218Z,1000.43
2018-02-11T01:25:17.725Z,1000.47
2018-02-11T01:25:58.279Z,1000.41
2018-02-11T01:26:38.801Z,1000.36
2018-02-11T01:27:19.346Z,1000.35
2018-02-11T01:27:59.871Z,1000.34
2018-02-11T01:28:40.412Z,1000.31
2018-02-11T01:29:20.944Z,1000.29
2018-02-11T01:30:01.499Z,1000.27
2018-02-11T01:30:42.042Z,1000.3
2018-02-11T01:31:22.559Z,1000.31
2018-02-11T01:32:03.099Z,1000.31
2018-02-11T01:32:43.644Z,1000.24
2018-02-11T01:33:24.245Z,1000.23
2018-02-11T01:34:04.776Z,1000.23
2018-02-11T01:34:45.311Z,1000.23
2018-02-11T01:35:25.855Z,1000.23
2018-02-11T01:36:06.554Z,1000.23
2018-02-11T01:36:46.863Z,1000.21
2018-02-11T01:37:27.501Z,1000.23
2018-02-11T01:38:08.043Z,1000.21
2018-02-11T01:38:48.572Z,1000.2
2018-02-11T01:39:29.060Z,1000.23
2018-02-11T01:40:09.694Z,1000.24
2018-02-11T01:40:50.228Z,1000.24
2018-02-11T01:41:30.845Z,1000.23
2018-02-11T01:42:11.389Z,1000.2
2018-02-11T01:42:51.884Z,1000.2
2018-02-11T01:43:32.394Z,1000.25
2018-02-11T01:44:13.027Z,1000.2
2018-02-11T01:44:53.550Z,1000.17
2018-02-11T01:45:34.072Z,1000.18
2018-02-11T01:46:14.600Z,1000.18
2018-02-11T01:46:55.170Z,1000.11
2018-02-11T01:47:35.634Z,1000.13
2018-02-11T01:48:16.180Z,1000.1
2018-02-11T01:48:56.721Z,1000.08
2018-02-11T01:49:37.308Z,1000.06
2018-02-11T01:50:17.872Z,1000.08
2018-02-11T01:50:58.410Z,1000.01
2018-02-11T01:51:38.960Z,1000.05
2018-02-11T01:52:19.501Z,1000
2018-02-11T01:53:00.060Z,999.93
2018-02-11T01:53:40.562Z,999.93
2018-02-11T01:54:21.095Z,999.9
2018-02-11T01:55:01.662Z,999.91
2018-02-11T01:55:42.168Z,999.87
2018-02-11T01:56:22.722Z,999.85
2018-02-11T01:57:03.272Z,999.87
2018-02-11T01:57:43.841Z,999.83
2018-02-11T01:58:24.328Z,999.81
2018-02-11T01:59:05.086Z,999.78
2018-02-11T01:59:45.616Z,999.79
2018-02-11T02:00:26.146Z,999.77
2018-02-11T02:01:06.716Z,999.75
2018-02-11T02:01:47.267Z,999.73
2018-02-11T02:02:27.788Z,999.7
2018-02-11T02:03:08.309Z,999.74
2018-02-11T02:03:48.864Z,999.74
2018-02-11T02:04:29.404Z,999.69
2018-02-11T02:05:09.935Z,999.64
2018-02-11T02:05:50.492Z,999.67
2018-02-11T02:06:31.027Z,999.64
2018-02-11T02:07:11.580Z,999.62
2018-02-11T02:07:52.102Z,999.64
2018-02-11T02:08:32.641Z,999.6
2018-02-11T02:09:13.152Z,999.57
2018-02-11T02:09:53.679Z,999.58
2018-02-11T02:10:34.215Z,999.56
2018-02-11T02:11:14.782Z,999.6
2018-02-11T02:11:55.294Z,999.57
2018-02-11T02:12:35.826Z,999.58
2018-02-11T02:13:16.331Z,999.58
2018-02-11T02:13:56.905Z,999.62
2018-02-11T02:14:37.381Z,999.61
2018-02-11T02:15:17.953Z,999.56
2018-02-11T02:15:58.476Z,999.56
2018-02-11T02:16:39.016Z,999.54
2018-02-11T02:17:19.561Z,999.53
2018-02-11T02:18:00.118Z,999.53
2018-02-11T02:18:40.603Z,999.47
2018-02-11T02:19:21.173Z,999.44
2018-02-11T02:20:01.703Z,999.45
2018-02-11T02:20:42.294Z,999.49
2018-02-11T02:21:22.866Z,999.45
2018-02-11T02:22:03.385Z,999.42
2018-02-11T02:22:43.941Z,999.43
2018-02-11T02:23:24.450Z,999.36
2018-02-11T02:24:04.982Z,999.41
2018-02-11T02:24:45.528Z,999.37
2018-02-11T02:25:26.010Z,999.37
2018-02-11T02:26:06.556Z,999.39
2018-02-11T02:26:47.113Z,999.38
2018-02-11T02:27:27.661Z,999.37
2018-02-11T02:28:08.176Z,999.34
2018-02-11T02:28:48.722Z,999.3
2018-02-11T02:29:29.283Z,999.27
2018-02-11T02:30:09.817Z,999.29
2018-02-11T02:30:50.381Z,999.25
2018-02-11T02:31:30.892Z,999.28
2018-02-11T02:32:11.419Z,999.22
2018-02-11T02:32:51.973Z,999.22
2018-02-11T02:33:32.530Z,999.29
2018-02-11T02:34:13.062Z,999.24
2018-02-11T02:34:53.579Z,999.2
2018-02-11T02:35:34.122Z,999.24
2018-02-11T02:36:14.664Z,999.18
2018-02-11T02:36:55.202Z,999.22
2018-02-11T02:37:35.742Z,999.22
2018-02-11T02:38:16.287Z,999.22
2018-02-11T02:38:56.879Z,999.23
2018-02-11T02:39:37.402Z,999.16
2018-02-11T02:40:17.914Z,999.12
2018-02-11T02:40:58.459Z,999.12
2018-02-11T02:41:38.996Z,999.11
2018-02-11T02:42:19.500Z,999.1
2018-02-11T02:43:00.052Z,999.15
2018-02-11T02:43:40.587Z,999.09
2018-02-11T02:44:21.115Z,999.07
2018-02-11T02:45:01.664Z,999.07
2018-02-11T02:45:42.205Z,999.03
2018-02-11T02:46:22.760Z,999.08
2018-02-11T02:47:03.249Z,999.04
2018-02-11T02:47:43.788Z,999.03
2018-02-11T02:48:24.355Z,999.03
2018-02-11T02:49:04.919Z,999.07
2018-02-11T02:49:45.456Z,999.06
2018-02-11T02:50:25.977Z,999.04
2018-02-11T02:51:06.501Z,999.06
2018-02-11T02:51:47.072Z,999.02
2018-02-11T02:52:27.531Z,999.01
2018-02-11T02:53:08.083Z,998.99
2018-02-11T02:53:48.608Z,999.06
2018-02-11T02:54:29.155Z,998.98
2018-02-11T02:55:09.696Z,999
2018-02-11T02:55:50.224Z,998.99
2018-02-11T02:56:30.719Z,998.97
2018-02-11T02:57:11.262Z,998.94
2018-02-11T02:57:51.793Z,998.89
2018-02-11T02:58:32.334Z,998.87
2018-02-11T02:59:12.852Z,998.89
2018-02-11T02:59:53.424Z,998.83
2018-02-11T03:00:33.951Z,998.85
2018-02-11T03:01:14.521Z,998.85
2018-02-11T03:01:55.014Z,998.85
2018-02-11T03:02:35.543Z,998.82
2018-02-11T03:03:16.103Z,998.82
2018-02-11T03:03:56.628Z,998.86
2018-02-11T03:04:37.138Z,998.84
2018-02-11T03:05:17.684Z,998.8
2018-02-11T03:05:58.249Z,998.78
2018-02-11T03:06:38.754Z,998.78
2018-02-11T03:07:19.364Z,998.76
2018-02-11T03:07:59.925Z,998.72
2018-02-11T03:08:40.473Z,998.71
2018-02-11T03:09:21.031Z,998.7
2018-02-11T03:10:01.576Z,998.69
2018-02-11T03:10:42.113Z,998.66
2018-02-11T03:11:22.709Z,998.57
2018-02-11T03:12:03.278Z,998.61
2018-02-11T03:12:43.821Z,998.6
2018-02-11T03:13:24.373Z,998.5
2018-02-11T03:14:04.909Z,998.53
2018-02-11T03:14:45.440Z,998.48
2018-02-11T03:15:25.974Z,998.47
2018-02-11T03:16:06.497Z,998.42
2018-02-11T03:16:46.973Z,998.38
2018-02-11T03:17:27.521Z,998.4
2018-02-11T03:18:08.068Z,998.41
2018-02-11T03:18:48.620Z,998.42
2018-02-11T03:19:29.158Z,998.37
2018-02-11T03:20:09.705Z,998.37
2018-02-11T03:20:50.223Z,998.37
2018-02-11T03:21:30.761Z,998.39
2018-02-11T03:22:11.325Z,998.35
2018-02-11T03:22:51.891Z,998.32
2018-02-11T03:23:32.439Z,998.36
2018-02-11T03:24:12.995Z,998.32
2018-02-11T03:24:53.520Z,998.29
2018-02-11T03:25:34.067Z,998.29
2018-02-11T03:26:14.597Z,998.3
2018-02-11T03:26:55.169Z,998.32
2018-02-11T03:27:35.675Z,998.28
2018-02-11T03:28:16.202Z,998.32
2018-02-11T03:28:56.759Z,998.28
2018-02-11T03:29:37.337Z,998.25
2018-02-11T03:30:17.865Z,998.18
2018-02-11T03:30:58.381Z,998.25
2018-02-11T03:31:38.879Z,998.15
2018-02-11T03:32:19.433Z,998.15
2018-02-11T03:32:59.982Z,998.12
2018-02-11T03:33:40.530Z,998.07
2018-02-11T03:34:21.044Z,998.14
2018-02-11T03:35:01.605Z,998.09
2018-02-11T03:35:42.096Z,998.1
2018-02-11T03:36:22.644Z,998.1
2018-02-11T03:37:03.198Z,998.02
2018-02-11T03:37:43.741Z,998.02
2018-02-11T03:38:24.256Z,998.04
2018-02-11T03:39:04.778Z,997.94
2018-02-11T03:39:45.294Z,998
2018-02-11T03:40:25.838Z,997.97
2018-02-11T03:41:06.372Z,997.95
2018-02-11T03:41:46.872Z,997.93
2018-02-11T03:42:27.418Z,997.96
2018-02-11T03:43:07.925Z,997.89
2018-02-11T03:43:48.439Z,997.89
2018-02-11T03:44:28.971Z,997.83
2018-02-11T03:45:09.497Z,997.9
2018-02-11T03:45:50.029Z,997.89
2018-02-11T03:46:30.556Z,997.88
2018-02-11T03:47:11.121Z,997.9
2018-02-11T03:47:51.680Z,997.9
2018-02-11T03:48:32.265Z,997.86
2018-02-11T03:49:12.788Z,997.88
2018-02-11T03:49:53.293Z,997.84
2018-02-11T03:50:33.860Z,997.85
2018-02-11T03:51:14.429Z,997.79
2018-02-11T03:51:55.015Z,997.78
2018-02-11T03:52:35.505Z,997.75
2018-02-11T03:53:16.041Z,997.76
2018-02-11T03:53:56.579Z,997.76
2018-02-11T03:54:37.140Z,997.71
2018-02-11T03:55:17.680Z,997.67
2018-02-11T03:55:58.184Z,997.72
2018-02-11T03:56:38.774Z,997.71
2018-02-11T03:57:19.407Z,997.73
2018-02-11T03:57:59.845Z,997.71
2018-02-11T03:58:40.380Z,997.65
2018-02-11T03:59:20.922Z,997.66
2018-02-11T04:00:01.480Z,997.63
2018-02-11T04:00:41.976Z,997.63
2018-02-11T04:01:22.526Z,997.61
2018-02-11T04:02:03.033Z,997.57
2018-02-11T04:02:43.587Z,997.59
2018-02-11T04:03:24.141Z,997.5
2018-02-11T04:04:04.656Z,997.48
2018-02-11T04:04:45.222Z,997.48
2018-02-11T04:05:25.729Z,997.45
2018-02-11T04:06:06.244Z,997.47
2018-02-11T04:06:46.772Z,997.53
2018-02-11T04:07:27.342Z,997.5
2018-02-11T04:08:07.867Z,997.48
2018-02-11T04:08:48.435Z,997.46
2018-02-11T04:09:29.004Z,997.46
2018-02-11T04:10:09.501Z,997.4
2018-02-11T04:10:50.060Z,997.43
2018-02-11T04:11:30.601Z,997.41
2018-02-11T04:12:11.151Z,997.35
2018-02-11T04:12:51.659Z,997.38
2018-02-11T04:13:32.218Z,997.38
2018-02-11T04:14:12.764Z,997.33
2018-02-11T04:14:53.289Z,997.36
2018-02-11T04:15:33.834Z,997.34
2018-02-11T04:16:14.408Z,997.32
2018-02-11T04:16:54.937Z,997.31
2018-02-11T04:17:35.485Z,997.36
2018-02-11T04:18:15.971Z,997.32
2018-02-11T04:18:56.573Z,997.29
2018-02-11T04:19:37.110Z,997.22
2018-02-11T04:20:17.637Z,997.24
2018-02-11T04:20:58.216Z,997.25
2018-02-11T04:21:38.757Z,997.27
2018-02-11T04:22:19.296Z,997.22
2018-02-11T04:22:59.839Z,997.16
2018-02-11T04:23:40.405Z,997.16
2018-02-11T04:24:20.900Z,997.13
2018-02-11T04:25:01.457Z,997.18
2018-02-11T04:25:41.983Z,997.2
2018-02-11T04:26:22.554Z,997.15
2018-02-11T04:27:03.081Z,997.13
2018-02-11T04:27:43.656Z,997.15
2018-02-11T04:28:24.178Z,997.17
2018-02-11T04:29:04.707Z,997.11
2018-02-11T04:29:45.253Z,997.13
2018-02-11T04:30:25.811Z,997.16
2018-02-11T04:31:06.353Z,997.17
2018-02-11T04:31:46.891Z,997.09
2018-02-11T04:32:27.478Z,997.15
2018-02-11T04:33:07.988Z,997.13
2018-02-11T04:33:48.506Z,997.14
2018-02-11T04:34:29.054Z,997.08
2018-02-11T04:35:09.631Z,997.1
2018-02-11T04:35:50.115Z,997.04
2018-02-11T04:36:30.684Z,997.06
2018-02-11T04:37:11.196Z,997.1
2018-02-11T04:37:51.740Z,997.09
2018-02-11T04:38:32.258Z,997.12
2018-02-11T04:39:12.794Z,997.07
2018-02-11T04:39:53.317Z,997.02
2018-02-11T04:40:33.892Z,997.02
2018-02-11T04:41:14.397Z,997.03
2018-02-11T04:41:54.940Z,996.95
2018-02-11T04:42:35.474Z,996.93
2018-02-11T04:43:16.068Z,996.91
2018-02-11T04:43:56.583Z,996.92
2018-02-11T04:44:37.119Z,996.85
2018-02-11T04:45:17.640Z,996.89
2018-02-11T04:45:58.162Z,996.86
2018-02-11T04:46:38.720Z,996.9
2018-02-11T04:47:19.314Z,996.87
2018-02-11T04:47:59.849Z,996.86
2018-02-11T04:48:40.357Z,996.85
2018-02-11T04:49:20.931Z,996.84
2018-02-11T04:50:01.473Z,996.84
2018-02-11T04:50:42.027Z,996.82
2018-02-11T04:51:22.592Z,996.8
2018-02-11T04:52:03.106Z,996.84
2018-02-11T04:52:43.644Z,996.81
2018-02-11T04:53:24.195Z,996.79
2018-02-11T04:54:04.772Z,996.75
2018-02-11T04:54:45.296Z,996.85
2018-02-11T04:55:25.864Z,996.73
2018-02-11T04:56:06.402Z,996.79
2018-02-11T04:56:46.946Z,996.76
2018-02-11T04:57:27.468Z,996.7
2018-02-11T04:58:08.026Z,996.72
2018-02-11T04:58:48.597Z,996.66
2018-02-11T04:59:29.155Z,996.65
2018-02-11T05:00:09.671Z,996.65
2018-02-11T05:00:50.182Z,996.67
2018-02-11T05:01:30.745Z,996.68
2018-02-11T05:02:11.319Z,996.71
2018-02-11T05:02:51.873Z,996.66
2018-02-11T05:03:32.370Z,996.66
2018-02-11T05:04:12.984Z,996.61
2018-02-11T05:04:53.483Z,996.56
2018-02-11T05:05:34.017Z,996.53
2018-02-11T05:06:14.561Z,996.52
2018-02-11T05:06:55.111Z,996.52
2018-02-11T05:07:35.660Z,996.48
2018-02-11T05:08:16.210Z,996.55
2018-02-11T05:08:56.768Z,996.49
2018-02-11T05:09:37.325Z,996.42
2018-02-11T05:10:17.833Z,996.43
2018-02-11T05:10:58.379Z,996.35
2018-02-11T05:11:38.928Z,996.34
2018-02-11T05:12:19.462Z,996.31
2018-02-11T05:13:00.000Z,996.31
2018-02-11T05:13:40.552Z,996.36
2018-02-11T05:14:21.130Z,996.39
2018-02-11T05:15:01.695Z,996.32
2018-02-11T05:15:42.182Z,996.37
2018-02-11T05:16:22.736Z,996.35
2018-02-11T05:17:03.292Z,996.38
2018-02-11T05:17:43.808Z,996.36
2018-02-11T05:18:24.336Z,996.32
2018-02-11T05:19:04.884Z,996.35
2018-02-11T05:19:45.486Z,996.34
2018-02-11T05:20:25.972Z,996.34
2018-02-11T05:21:06.552Z,996.31
2018-02-11T05:21:47.053Z,996.29
2018-02-11T05:22:27.624Z,996.37
2018-02-11T05:23:08.134Z,996.32
2018-02-11T05:23:48.709Z,996.27
2018-02-11T05:24:29.284Z,996.29
2018-02-11T05:25:09.748Z,996.26
2018-02-11T05:25:50.289Z,996.3
2018-02-11T05:26:30.847Z,996.31
2018-02-11T05:27:11.373Z,996.29
2018-02-11T05:27:51.935Z,996.29
2018-02-11T05:28:32.465Z,996.24
2018-02-11T05:29:12.968Z,996.22
2018-02-11T05:29:53.526Z,996.24
2018-02-11T05:30:34.081Z,996.2
2018-02-11T05:31:14.608Z,996.15
2018-02-11T05:31:55.185Z,996.13
2018-02-11T05:32:35.693Z,996.13
2018-02-11T05:33:16.245Z,996.13
2018-02-11T05:33:56.782Z,996.19
2018-02-11T05:34:37.338Z,996.18
2018-02-11T05:35:17.919Z,996.15
2018-02-11T05:35:58.394Z,996.19
2018-02-11T05:36:38.942Z,996.13
2018-02-11T05:37:19.507Z,996.18
2018-02-11T05:38:00.043Z,996.1
2018-02-11T05:38:40.611Z,996.11
2018-02-11T05:39:21.128Z,996.1
2018-02-11T05:40:01.674Z,996.11
2018-02-11T05:40:42.232Z,996.15
2018-02-11T05:41:22.751Z,996.08
2018-02-11T05:42:03.292Z,996.11
2018-02-11T05:42:43.806Z,996.1
2018-02-11T05:43:24.374Z,996.09
2018-02-11T05:44:04.864Z,996
2018-02-11T05:44:45.425Z,996.07
2018-02-11T05:45:25.964Z,996.07
2018-02-11T05:46:06.527Z,996.07
2018-02-11T05:46:47.031Z,996.04
2018-02-11T05:47:27.502Z,995.98
2018-02-11T05:48:08.021Z,995.95
2018-02-11T05:48:48.557Z,995.92
2018-02-11T05:49:29.115Z,995.93
2018-02-11T05:50:09.659Z,995.92
2018-02-11T05:50:50.158Z,995.91
2018-02-11T05:51:30.767Z,995.89
2018-02-11T05:52:11.268Z,995.84
2018-02-11T05:52:51.795Z,995.82
2018-02-11T05:53:32.333Z,995.81
2018-02-11T05:54:12.876Z,995.85
2018-02-11T05:54:53.411Z,995.82
2018-02-11T05:55:33.951Z,995.8
2018-02-11T05:56:14.480Z,995.75
2018-02-11T05:56:55.051Z,995.73
2018-02-11T05:57:35.578Z,995.7
2018-02-11T05:58:16.113Z,995.72
2018-02-11T05:58:56.645Z,995.72
2018-02-11T05:59:37.203Z,995.7
2018-02-11T06:00:17.733Z,995.7
2018-02-11T06:00:58.278Z,995.71
2018-02-11T06:01:38.803Z,995.65
2018-02-11T06:02:19.298Z,995.69
2018-02-11T06:02:59.832Z,995.62
2018-02-11T06:03:40.394Z,995.66
2018-02-11T06:04:20.915Z,995.63
2018-02-11T06:05:01.456Z,995.64
2018-02-11T06:05:42.006Z,995.57
2018-02-11T06:06:22.553Z,995.56
2018-02-11T06:07:03.084Z,995.59
2018-02-11T06:07:43.648Z,995.61
2018-02-11T06:08:24.170Z,995.63
2018-02-11T06:09:04.723Z,995.63
2018-02-11T06:09:45.228Z,995.62
2018-02-11T06:10:25.744Z,995.64
2018-02-11T06:11:06.331Z,995.61
2018-02-11T06:11:46.896Z,995.62
2018-02-11T06:12:27.397Z,995.59
2018-02-11T06:13:07.925Z,995.58
2018-02-11T06:13:48.519Z,995.59
2018-02-11T06:14:29.030Z,995.55
2018-02-11T06:15:09.548Z,995.51
2018-02-11T06:15:50.074Z,995.47
2018-02-11T06:16:30.581Z,995.47
2018-02-11T06:17:11.128Z,995.43
2018-02-11T06:17:51.674Z,995.37
2018-02-11T06:18:32.221Z,995.43
2018-02-11T06:19:12.737Z,995.42
2018-02-11T06:19:53.296Z,995.42
2018-02-11T06:20:33.811Z,995.4
2018-02-11T06:21:14.334Z,995.37
2018-02-11T06:21:54.881Z,995.37
2018-02-11T06:22:35.417Z,995.37
2018-02-11T06:23:15.967Z,995.33
2018-02-11T06:23:56.498Z,995.41
2018-02-11T06:24:37.032Z,995.31
2018-02-11T06:25:17.551Z,995.31
2018-02-11T06:25:58.122Z,995.21
2018-02-11T06:26:38.648Z,995.3
2018-02-11T06:27:19.224Z,995.23
2018-02-11T06:27:59.790Z,995.29
2018-02-11T06:28:40.319Z,995.29
2018-02-11T06:29:20.843Z,995.27
2018-02-11T06:30:01.400Z,995.27
2018-02-11T06:30:41.932Z,995.26
2018-02-11T06:31:22.464Z,995.3
2018-02-11T06:32:02.991Z,995.3
2018-02-11T06:32:43.559Z,995.25
2018-02-11T06:33:24.081Z,995.21
2018-02-11T06:34:04.606Z,995.22
2018-02-11T06:34:45.146Z,995.25
2018-02-11T06:35:25.693Z,995.22
2018-02-11T06:36:06.216Z,995.22
2018-02-11T06:36:46.771Z,995.27
2018-02-11T06:37:27.319Z,995.22
2018-02-11T06:38:07.906Z,995.22
2018-02-11T06:38:48.420Z,995.21
2018-02-11T06:39:28.974Z,995.19
2018-02-11T06:40:09.507Z,995.2
2018-02-11T06:40:50.032Z,995.21
2018-02-11T06:41:30.562Z,995.18
2018-02-11T06:42:11.090Z,995.24
2018-02-11T06:42:51.638Z,995.23
2018-02-11T06:43:32.416Z,995.18
2018-02-11T06:44:12.965Z,995.14
2018-02-11T06:44:53.521Z,995.16
2018-02-11T06:45:34.152Z,995.16
2018-02-11T06:46:14.638Z,995.08
2018-02-11T06:46:55.180Z,995.12
2018-02-11T06:47:35.706Z,995.15
2018-02-11T06:48:16.215Z,995.17
2018-02-11T06:48:56.767Z,995.16
2018-02-11T06:49:37.297Z,995.11
2018-02-11T06:50:17.845Z,995.09
2018-02-11T06:50:58.368Z,995.14
2018-02-11T06:51:38.877Z,995.14
2018-02-11T06:52:19.425Z,995.13
2018-02-11T06:52:59.935Z,995.05
2018-02-11T06:53:40.509Z,995.07
2018-02-11T06:54:21.054Z,995.06
2018-02-11T06:55:01.521Z,995.03
2018-02-11T06:55:42.064Z,994.97
2018-02-11T06:56:22.629Z,994.98
2018-02-11T06:57:03.164Z,994.93
2018-02-11T06:57:43.732Z,994.96
2018-02-11T06:58:24.295Z,994.9
2018-02-11T06:59:04.835Z,994.97
2018-02-11T06:59:45.323Z,994.96
2018-02-11T07:00:25.870Z,995
2018-02-11T07:01:06.401Z,994.98
2018-02-11T07:01:46.968Z,994.97
2018-02-11T07:02:27.565Z,995
2018-02-11T07:03:08.062Z,994.93
2018-02-11T07:03:48.636Z,994.98
2018-02-11T07:04:29.161Z,994.98
2018-02-11T07:05:09.685Z,995.05
2018-02-11T07:05:50.239Z,995.02
2018-02-11T07:06:30.770Z,994.98
2018-02-11T07:07:11.271Z,994.97
2018-02-11T07:07:51.800Z,994.92
2018-02-11T07:08:32.351Z,994.88
2018-02-11T07:09:12.885Z,994.81
2018-02-11T07:09:53.440Z,994.84
2018-02-11T07:10:33.964Z,994.85
2018-02-11T07:11:14.496Z,994.89
2018-02-11T07:11:55.032Z,994.85
2018-02-11T07:12:35.585Z,994.83
2018-02-11T07:13:16.231Z,994.76
2018-02-11T07:13:56.651Z,994.75
2018-02-11T07:14:37.203Z,994.78
2018-02-11T07:15:17.720Z,994.77
2018-02-11T07:15:58.252Z,994.78
2018-02-11T07:16:38.776Z,994.78
2018-02-11T07:17:19.323Z,994.76
2018-02-11T07:17:59.885Z,994.7
2018-02-11T07:18:40.449Z,994.79
2018-02-11T07:19:20.998Z,994.81
2018-02-11T07:20:01.615Z,994.76
2018-02-11T07:20:42.155Z,994.74
2018-02-11T07:21:22.693Z,994.83
2018-02-11T07:22:03.236Z,994.87
2018-02-11T07:22:43.777Z,994.76
2018-02-11T07:23:24.334Z,994.76
2018-02-11T07:24:04.885Z,994.78
2018-02-11T07:24:45.446Z,994.75
2018-02-11T07:25:25.938Z,994.76
2018-02-11T07:26:06.475Z,994.83
2018-02-11T07:26:46.997Z,994.76
2018-02-11T07:27:27.536Z,994.74
2018-02-11T07:28:08.130Z,994.69
2018-02-11T07:28:48.675Z,994.71
2018-02-11T07:29:29.197Z,994.68
2018-02-11T07:30:09.719Z,994.66
2018-02-11T07:30:50.297Z,994.7
2018-02-11T07:31:30.829Z,994.7
2018-02-11T07:32:11.430Z,994.68
2018-02-11T07:32:51.937Z,994.64
2018-02-11T07:33:32.449Z,994.69
2018-02-11T07:34:13.014Z,994.61
2018-02-11T07:34:53.593Z,994.62
2018-02-11T07:35:34.139Z,994.61
2018-02-11T07:36:14.654Z,994.55
2018-02-11T07:36:55.248Z,994.57
2018-02-11T07:37:35.744Z,994.63
2018-02-11T07:38:16.308Z,994.49
2018-02-11T07:38:56.845Z,994.56
2018-02-11T07:39:37.399Z,994.54
2018-02-11T07:40:17.966Z,994.44
2018-02-11T07:40:58.482Z,994.58
2018-02-11T07:41:39.030Z,994.5
2018-02-11T07:42:19.576Z,994.53
2018-02-11T07:43:00.086Z,994.52
2018-02-11T07:43:40.636Z,994.53
2018-02-11T07:44:21.194Z,994.43
2018-02-11T07:45:01.698Z,994.51
2018-02-11T07:45:42.208Z,994.53
2018-02-11T07:46:22.771Z,994.47
2018-02-11T07:47:03.387Z,994.42
2018-02-11T07:47:43.916Z,994.48
2018-02-11T07:48:24.442Z,994.36
2018-02-11T07:49:04.957Z,994.26
2018-02-11T07:49:45.548Z,994.37
2018-02-11T07:50:26.033Z,994.41
2018-02-11T07:51:06.618Z,994.39
2018-02-11T07:51:47.158Z,994.34
2018-02-11T07:52:27.705Z,994.37
2018-02-11T07:53:08.305Z,994.42
2018-02-11T07:53:48.807Z,994.38
2018-02-11T07:54:34.427Z,994.36
2018-02-11T07:55:16.967Z,994.38
2018-02-11T07:55:57.513Z,994.38
2018-02-11T07:56:38.077Z,994.32
2018-02-11T07:57:18.608Z,994.29
2018-02-11T07:57:59.116Z,994.31
2018-02-11T07:58:39.733Z,994.3
2018-02-11T07:59:20.297Z,994.25
2018-02-11T08:00:00.781Z,994.26
2018-02-11T08:00:41.301Z,994.22
2018-02-11T08:01:21.865Z,994.25
2018-02-11T08:02:02.465Z,994.27
2018-02-11T08:02:42.998Z,994.23
2018-02-11T08:03:23.600Z,994.22
2018-02-11T08:04:04.154Z,994.25
2018-02-11T08:04:44.757Z,994.25
2018-02-11T08:05:25.308Z,994.19
2018-02-11T08:06:05.855Z,994.12
2018-02-11T08:06:46.393Z,994.21
2018-02-11T08:07:26.952Z,994.25
2018-02-11T08:08:07.625Z,994.23
2018-02-11T08:08:48.165Z,994.17
2018-02-11T08:09:28.741Z,994.27
2018-02-11T08:10:09.249Z,994.19
2018-02-11T08:10:49.827Z,994.21
2018-02-11T08:11:30.365Z,994.27
2018-02-11T08:12:10.911Z,994.22
2018-02-11T08:12:51.450Z,994.31
2018-02-11T08:13:32.010Z,994.26
2018-02-11T08:14:12.544Z,994.19
2018-02-11T08:14:53.059Z,994.2
2018-02-11T08:15:33.626Z,994.29
2018-02-11T08:16:14.193Z,994.26
2018-02-11T08:16:54.723Z,994.23
2018-02-11T08:17:35.315Z,994.25
2018-02-11T08:18:15.859Z,994.3
2018-02-11T08:18:56.403Z,994.33
2018-02-11T08:19:36.894Z,994.35
2018-02-11T08:20:17.473Z,994.36
2018-02-11T08:20:58.058Z,994.41
2018-02-11T08:21:38.598Z,994.41
2018-02-11T08:22:19.081Z,994.35
2018-02-11T08:22:59.655Z,994.36
2018-02-11T08:23:40.216Z,994.37
2018-02-11T08:24:20.717Z,994.47